Time;durP1;ratioP1;P1;durP2;ratioP2;P2;SDS_P1;SDS_P2;PMS_P1;PMS_P2;Temp;Humidity;BMP_temperature;BMP_pressure;BME280_temperature;BME280_humidity;BME280_pressure;Samples;Min_cycle;Max_cycle;Signal;HPM_P1;HPM_P2
2022/02/25 00:01:16;;;;;;;;;;;3.50;95.40;;;;;;5062462;28;19916;-66
2022/02/25 00:03:42;;;;;;;;;;;3.60;95.70;;;;;;5045034;28;19909;-65
2022/02/25 00:06:08;;;;;;;;;;;3.60;95.50;;;;;;5042737;28;20051;-65
2022/02/25 00:08:33;;;;;;;;;;;3.60;95.20;;;;;;5042788;28;19910;-65
2022/02/25 00:10:59;;;;;;;;;;;3.50;95.40;;;;;;5042432;28;20287;-66
2022/02/25 00:13:25;;;;;;;;;;;3.60;95.60;;;;;;5042698;28;19940;-66
2022/02/25 00:15:50;;;;;;;;;;;3.60;95.70;;;;;;5042797;28;19963;-66
2022/02/25 00:18:16;;;;;;;;;;;3.50;95.60;;;;;;5042415;28;19913;-66
2022/02/25 00:20:42;;;;;;;;;;;3.60;95.50;;;;;;5042305;28;19976;-65
2022/02/25 00:23:08;;;;;;;;;;;3.70;95.60;;;;;;5042545;28;19909;-66
2022/02/25 00:25:35;;;;;;;;;;;3.60;95.50;;;;;;5042632;28;19993;-66
2022/02/25 00:28:01;;;;;;;;;;;3.60;95.60;;;;;;5042670;28;19909;-66
2022/02/25 00:30:27;;;;;;;;;;;3.70;95.70;;;;;;5042456;28;20297;-65
2022/02/25 00:32:52;;;;;;;;;;;3.70;95.30;;;;;;5051913;28;19943;-67
2022/02/25 00:35:18;;;;;;;;;;;3.70;95.40;;;;;;5062433;28;19916;-67
2022/02/25 00:37:44;;;;;;;;;;;3.70;95.30;;;;;;5062517;28;19909;-67
2022/02/25 00:40:10;;;;;;;;;;;3.70;95.30;;;;;;5062356;28;19909;-67
2022/02/25 00:42:35;;;;;;;;;;;3.70;95.30;;;;;;5062018;28;19951;-67
2022/02/25 00:45:01;;;;;;;;;;;3.70;95.20;;;;;;5062330;28;19913;-67
2022/02/25 00:47:27;;;;;;;;;;;3.70;94.80;;;;;;5062153;28;19939;-66
2022/02/25 00:49:52;;;;;;;;;;;3.70;95.00;;;;;;5062281;28;19909;-66
2022/02/25 00:52:18;;;;;;;;;;;3.70;94.80;;;;;;5061998;28;19909;-66
2022/02/25 00:54:44;;;;;;;;;;;3.70;94.60;;;;;;5053249;28;19916;-67
2022/02/25 00:57:10;;;;;;;;;;;3.70;94.40;;;;;;5042426;28;19909;-66
2022/02/25 00:59:35;;;;;;;;;;;3.70;94.40;;;;;;5042365;28;19971;-67
2022/02/25 01:02:01;;;;;;;;;;;3.70;94.10;;;;;;5043759;28;19917;-66
2022/02/25 01:04:27;;;;;;;;;;;3.70;94.30;;;;;;5062065;28;19913;-67
2022/02/25 01:06:54;;;;;;;;;;;3.60;94.10;;;;;;5065843;28;19909;-66
2022/02/25 01:09:19;;;;;;;;;;;3.50;94.50;;;;;;5065720;28;19909;-66
2022/02/25 01:11:45;;;;;;;;;;;3.40;94.70;;;;;;5065407;28;19909;-65
2022/02/25 01:14:10;;;;;;;;;;;3.40;94.70;;;;;;5065723;28;19916;-65
2022/02/25 01:16:36;;;;;;;;;;;3.40;94.60;;;;;;5065694;28;19915;-66
2022/02/25 01:19:02;;;;;;;;;;;3.40;94.40;;;;;;5065314;28;20196;-64
2022/02/25 01:21:28;;;;;;;;;;;3.30;94.50;;;;;;5065001;28;19990;-64
2022/02/25 01:23:53;;;;;;;;;;;3.30;94.60;;;;;;5064412;28;19909;-65
2022/02/25 01:26:19;;;;;;;;;;;3.30;94.50;;;;;;5064291;28;19936;-65
2022/02/25 01:28:45;;;;;;;;;;;3.30;94.60;;;;;;5064274;28;20037;-65
2022/02/25 01:31:11;;;;;;;;;;;3.30;94.70;;;;;;5063790;28;19916;-65
2022/02/25 01:33:36;;;;;;;;;;;3.20;94.70;;;;;;5063833;28;20092;-65
2022/02/25 01:36:03;;;;;;;;;;;3.20;94.70;;;;;;5064116;28;19909;-65
2022/02/25 01:38:29;;;;;;;;;;;3.20;94.60;;;;;;5064123;28;19909;-65
2022/02/25 01:40:54;;;;;;;;;;;3.20;94.50;;;;;;5063610;28;20224;-65
2022/02/25 01:43:23;;;;;;;;;;;3.10;94.40;;;;;;5063930;28;19980;-65
2022/02/25 01:45:49;;;;;;;;;;;3.10;94.40;;;;;;5063714;28;19958;-64
2022/02/25 01:48:15;;;;;;;;;;;3.10;94.30;;;;;;5063507;28;19913;-64
2022/02/25 01:50:40;;;;;;;;;;;3.10;94.30;;;;;;5063449;28;20259;-65
2022/02/25 01:53:07;;;;;;;;;;;3.10;94.20;;;;;;5062495;28;20007;-65
2022/02/25 01:55:34;;;;;;;;;;;3.00;94.20;;;;;;5062428;28;20246;-65
2022/02/25 01:58:00;;;;;;;;;;;3.00;94.30;;;;;;5063637;28;19916;-65
2022/02/25 02:00:26;;;;;;;;;;;3.00;94.20;;;;;;5063395;28;19972;-65
2022/02/25 02:02:52;;;;;;;;;;;3.00;94.10;;;;;;5053950;28;20204;-64
2022/02/25 02:05:17;;;;;;;;;;;3.00;94.00;;;;;;5043478;28;19963;-65
2022/02/25 02:07:43;;;;;;;;;;;3.00;94.00;;;;;;5050119;28;19916;-64
2022/02/25 02:10:09;;;;;;;;;;;3.00;94.00;;;;;;5063345;28;19947;-65
2022/02/25 02:12:35;;;;;;;;;;;3.00;94.10;;;;;;5045045;28;19917;-64
2022/02/25 02:15:01;;;;;;;;;;;3.00;94.10;;;;;;5063408;28;19931;-65
2022/02/25 02:17:26;;;;;;;;;;;3.10;93.90;;;;;;5044238;28;19909;-65
2022/02/25 02:19:52;;;;;;;;;;;3.10;93.70;;;;;;5063334;28;19916;-65
2022/02/25 02:22:23;;;;;;;;;;;3.20;93.70;;;;;;5062883;28;20158;-65
2022/02/25 02:24:48;;;;;;;;;;;3.20;93.70;;;;;;5045628;28;19913;-65
2022/02/25 02:27:14;;;;;;;;;;;3.20;93.70;;;;;;5062886;28;20206;-65
2022/02/25 02:29:40;;;;;;;;;;;3.20;93.70;;;;;;5063266;28;19919;-65
2022/02/25 02:32:06;;;;;;;;;;;3.20;93.90;;;;;;5060563;28;19908;-65
2022/02/25 02:34:31;;;;;;;;;;;3.20;94.00;;;;;;5042922;28;20266;-64
2022/02/25 02:36:57;;;;;;;;;;;3.20;93.90;;;;;;5042963;28;19909;-65
2022/02/25 02:39:23;;;;;;;;;;;3.20;93.50;;;;;;5042890;28;19959;-65
2022/02/25 02:41:48;;;;;;;;;;;3.30;93.50;;;;;;5042482;28;19977;-65
2022/02/25 02:44:14;;;;;;;;;;;3.30;93.40;;;;;;5042759;28;19937;-65
2022/02/25 02:46:40;;;;;;;;;;;3.20;93.30;;;;;;5042813;28;20199;-64
2022/02/25 02:49:06;;;;;;;;;;;3.20;93.30;;;;;;5042462;28;19909;-65
2022/02/25 02:51:32;;;;;;;;;;;3.20;93.40;;;;;;5042404;28;19955;-65
2022/02/25 02:53:58;;;;;;;;;;;3.20;93.30;;;;;;5042612;28;19917;-64
2022/02/25 02:56:24;;;;;;;;;;;3.20;93.30;;;;;;5042579;28;19941;-65
2022/02/25 02:58:55;;;;;;;;;;;3.20;93.30;;;;;;5042546;28;20070;-65
2022/02/25 03:01:30;;;;;;;;;;;3.20;93.20;;;;;;5025533;28;19966;-65
2022/02/25 03:03:56;;;;;;;;;;;3.20;93.30;;;;;;5058532;28;20001;-65
2022/02/25 03:06:23;;;;;;;;;;;3.20;93.20;;;;;;5062132;28;19919;-65
2022/02/25 03:08:48;;;;;;;;;;;3.20;93.00;;;;;;5062313;28;19988;-65
2022/02/25 03:11:14;;;;;;;;;;;3.20;92.80;;;;;;5061868;28;19909;-65
2022/02/25 03:13:40;;;;;;;;;;;3.20;93.00;;;;;;5062159;28;19935;-66
2022/02/25 03:16:06;;;;;;;;;;;3.20;93.00;;;;;;5062165;28;19916;-65
2022/02/25 03:18:31;;;;;;;;;;;3.20;92.90;;;;;;5061749;28;19909;-66
2022/02/25 03:20:57;;;;;;;;;;;3.20;92.80;;;;;;5061723;28;19915;-65
2022/02/25 03:23:23;;;;;;;;;;;3.10;93.20;;;;;;5062222;28;20351;-64
2022/02/25 03:25:48;;;;;;;;;;;3.00;93.00;;;;;;5062142;28;19912;-65
2022/02/25 03:28:14;;;;;;;;;;;3.00;93.20;;;;;;5044306;28;20297;-65
2022/02/25 03:30:40;;;;;;;;;;;2.90;93.10;;;;;;5061749;28;19916;-65
2022/02/25 03:33:06;;;;;;;;;;;2.90;93.30;;;;;;5061708;28;19909;-65
2022/02/25 03:35:33;;;;;;;;;;;2.80;93.40;;;;;;5061901;28;19909;-65
2022/02/25 03:37:59;;;;;;;;;;;2.80;93.30;;;;;;5061950;28;19909;-65
2022/02/25 03:40:27;;;;;;;;;;;2.70;93.40;;;;;;5043801;28;20010;-65
2022/02/25 03:42:54;;;;;;;;;;;2.70;93.60;;;;;;5061708;28;19927;-65
2022/02/25 03:45:19;;;;;;;;;;;2.70;93.50;;;;;;5061634;28;20079;-65
2022/02/25 03:47:45;;;;;;;;;;;2.80;93.50;;;;;;5061468;28;20146;-65
2022/02/25 03:50:11;;;;;;;;;;;2.80;93.40;;;;;;5061544;28;19959;-65
2022/02/25 03:52:37;;;;;;;;;;;2.90;93.50;;;;;;5061317;28;20151;-65
2022/02/25 03:55:04;;;;;;;;;;;2.90;93.30;;;;;;5061633;28;20230;-65
2022/02/25 03:57:29;;;;;;;;;;;2.90;93.30;;;;;;5061582;28;20135;-65
2022/02/25 03:59:55;;;;;;;;;;;3.00;93.10;;;;;;5061657;28;19962;-65
2022/02/25 04:02:21;;;;;;;;;;;3.00;93.20;;;;;;5057573;28;20001;-65
2022/02/25 04:04:47;;;;;;;;;;;3.00;92.90;;;;;;5041463;28;19932;-65
2022/02/25 04:07:13;;;;;;;;;;;3.00;92.70;;;;;;5041659;28;19928;-65
2022/02/25 04:09:38;;;;;;;;;;;2.90;92.90;;;;;;5041549;28;19909;-65
2022/02/25 04:12:04;;;;;;;;;;;2.90;92.90;;;;;;5041283;28;19909;-65
2022/02/25 04:14:30;;;;;;;;;;;2.90;92.90;;;;;;5041531;28;19916;-65
2022/02/25 04:16:56;;;;;;;;;;;2.90;93.00;;;;;;5041646;28;19938;-65
2022/02/25 04:19:21;;;;;;;;;;;2.90;93.00;;;;;;5041275;28;20231;-65
2022/02/25 04:21:47;;;;;;;;;;;2.80;92.70;;;;;;5041271;28;19936;-65
2022/02/25 04:24:13;;;;;;;;;;;2.80;92.80;;;;;;5041503;28;19963;-66
2022/02/25 04:26:39;;;;;;;;;;;2.70;92.50;;;;;;5041374;28;19956;-64
2022/02/25 04:29:05;;;;;;;;;;;2.70;92.70;;;;;;5041512;28;19917;-65
2022/02/25 04:31:31;;;;;;;;;;;2.70;92.70;;;;;;5041120;28;19932;-66
2022/02/25 04:33:56;;;;;;;;;;;2.60;92.80;;;;;;5023385;28;19915;-66
2022/02/25 04:36:22;;;;;;;;;;;2.60;92.70;;;;;;5041362;28;19913;-66
2022/02/25 04:38:49;;;;;;;;;;;2.60;92.80;;;;;;5041271;28;19939;-66
2022/02/25 04:41:15;;;;;;;;;;;2.50;92.80;;;;;;5074546;22;19923;-67
2022/02/25 04:43:40;;;;;;;;;;;2.50;92.70;;;;;;5098176;28;20252;-67
2022/02/25 04:46:06;;;;;;;;;;;2.50;92.80;;;;;;5106832;28;19912;-68
2022/02/25 04:48:32;;;;;;;;;;;2.50;92.90;;;;;;5105569;28;19908;-67
2022/02/25 04:50:58;;;;;;;;;;;2.40;92.80;;;;;;5105225;28;19931;-70
2022/02/25 04:53:23;;;;;;;;;;;2.40;93.00;;;;;;5106667;28;19952;-71
2022/02/25 04:55:49;;;;;;;;;;;2.40;93.10;;;;;;5106595;28;19908;-71
2022/02/25 04:58:15;;;;;;;;;;;2.40;93.00;;;;;;5106331;28;19908;-70
2022/02/25 05:00:41;;;;;;;;;;;2.40;93.00;;;;;;5088289;28;20144;-69
2022/02/25 05:03:07;;;;;;;;;;;2.30;93.10;;;;;;5106334;28;19912;-70
2022/02/25 05:05:33;;;;;;;;;;;2.30;93.20;;;;;;5105172;28;20003;-70
2022/02/25 05:07:59;;;;;;;;;;;2.30;93.30;;;;;;5106326;28;19930;-70
2022/02/25 05:10:26;;;;;;;;;;;2.20;93.60;;;;;;5106260;28;19908;-70
2022/02/25 05:12:52;;;;;;;;;;;2.20;93.30;;;;;;5076263;28;19916;-71
2022/02/25 05:20:47;;;;;;;;;;;2.20;93.40;;;;;;5065374;28;20279;-70
2022/02/25 05:23:13;;;;;;;;;;;2.20;93.50;;;;;;5064618;28;19940;-68
2022/02/25 05:25:39;;;;;;;;;;;2.20;93.40;;;;;;5065617;28;19920;-69
2022/02/25 05:28:05;;;;;;;;;;;2.10;93.50;;;;;;5064896;28;20022;-69
2022/02/25 05:30:31;;;;;;;;;;;2.10;93.50;;;;;;5065550;28;20146;-68
2022/02/25 05:32:57;;;;;;;;;;;2.10;93.40;;;;;;5064113;28;20096;-67
2022/02/25 05:35:22;;;;;;;;;;;2.10;93.50;;;;;;5065408;28;19975;-69
2022/02/25 05:37:48;;;;;;;;;;;2.10;93.50;;;;;;5064288;28;20107;-67
2022/02/25 05:40:15;;;;;;;;;;;2.10;93.40;;;;;;5064327;28;19908;-68
2022/02/25 05:42:41;;;;;;;;;;;2.00;93.40;;;;;;5075969;28;19919;-67
2022/02/25 05:45:07;;;;;;;;;;;2.00;93.50;;;;;;5082896;28;19912;-70
2022/02/25 05:47:34;;;;;;;;;;;2.00;93.40;;;;;;5083886;28;19908;-70
2022/02/25 05:50:00;;;;;;;;;;;2.00;93.40;;;;;;5085008;28;19939;-70
2022/02/25 05:52:26;;;;;;;;;;;2.00;93.40;;;;;;5083644;28;19976;-70
2022/02/25 05:54:52;;;;;;;;;;;2.00;93.40;;;;;;5085163;28;19908;-70
2022/02/25 05:57:17;;;;;;;;;;;1.90;93.40;;;;;;5084851;28;19908;-70
2022/02/25 05:59:43;;;;;;;;;;;1.90;93.40;;;;;;5085021;28;19908;-69
2022/02/25 06:02:09;;;;;;;;;;;2.00;93.50;;;;;;5084477;28;19915;-70
2022/02/25 06:04:35;;;;;;;;;;;2.00;93.40;;;;;;5066727;28;20091;-68
2022/02/25 06:07:00;;;;;;;;;;;1.90;93.40;;;;;;5064815;28;20208;-71
2022/02/25 06:09:26;;;;;;;;;;;2.00;93.40;;;;;;5064723;28;20204;-70
2022/02/25 06:11:52;;;;;;;;;;;1.90;93.50;;;;;;5064357;28;19944;-71
2022/02/25 06:14:17;;;;;;;;;;;1.90;93.60;;;;;;5063711;28;20103;-70
2022/02/25 06:16:43;;;;;;;;;;;1.90;93.40;;;;;;5064661;28;19909;-71
2022/02/25 06:19:09;;;;;;;;;;;1.90;93.40;;;;;;5063103;28;19916;-71
2022/02/25 06:21:35;;;;;;;;;;;1.80;93.40;;;;;;5064070;28;19915;-71
2022/02/25 06:24:01;;;;;;;;;;;1.90;93.40;;;;;;5064528;28;19917;-71
2022/02/25 06:26:27;;;;;;;;;;;1.90;93.40;;;;;;5064418;28;19951;-71
2022/02/25 06:28:53;;;;;;;;;;;1.90;93.30;;;;;;5063815;28;19909;-71
2022/02/25 06:31:19;;;;;;;;;;;1.90;93.20;;;;;;5064195;28;19908;-71
2022/02/25 06:33:45;;;;;;;;;;;1.90;93.30;;;;;;5071858;28;19935;-70
2022/02/25 06:36:10;;;;;;;;;;;1.90;93.30;;;;;;5083388;28;19908;-72
2022/02/25 06:38:36;;;;;;;;;;;1.90;93.40;;;;;;5084575;28;19915;-72
2022/02/25 06:41:02;;;;;;;;;;;1.90;93.50;;;;;;5083909;28;19916;-71
2022/02/25 06:43:28;;;;;;;;;;;1.90;93.40;;;;;;5083438;28;19908;-70
2022/02/25 06:45:53;;;;;;;;;;;1.90;93.40;;;;;;5084331;28;20081;-71
2022/02/25 06:48:19;;;;;;;;;;;1.90;93.40;;;;;;5084190;28;19954;-71
2022/02/25 06:50:46;;;;;;;;;;;2.00;93.40;;;;;;5082556;28;20222;-72
2022/02/25 06:53:11;;;;;;;;;;;2.00;93.40;;;;;;5083693;28;20272;-71
2022/02/25 06:55:37;;;;;;;;;;;2.00;93.30;;;;;;5083921;28;19913;-71
2022/02/25 06:58:04;;;;;;;;;;;2.10;93.30;;;;;;5084140;28;19939;-70
2022/02/25 07:00:30;;;;;;;;;;;2.10;93.20;;;;;;5082678;28;20216;-71
2022/02/25 07:02:55;;;;;;;;;;;2.10;93.10;;;;;;5081771;28;19996;-71
2022/02/25 07:05:21;;;;;;;;;;;2.10;93.10;;;;;;5083638;28;19919;-70
2022/02/25 07:07:48;;;;;;;;;;;2.20;93.10;;;;;;5082431;28;19908;-70
2022/02/25 07:10:14;;;;;;;;;;;2.10;93.10;;;;;;5083652;28;19908;-71
2022/02/25 07:12:39;;;;;;;;;;;2.20;93.20;;;;;;5082171;28;19915;-70
2022/02/25 07:15:06;;;;;;;;;;;2.20;93.10;;;;;;5083548;28;19917;-70
2022/02/25 07:17:32;;;;;;;;;;;2.20;93.00;;;;;;5083292;28;19920;-70
2022/02/25 07:19:57;;;;;;;;;;;2.30;93.10;;;;;;5083172;28;19909;-70
2022/02/25 07:22:23;;;;;;;;;;;2.30;93.10;;;;;;5083149;28;20257;-70
2022/02/25 07:24:49;;;;;;;;;;;2.30;93.00;;;;;;5082312;28;19913;-69
2022/02/25 07:27:14;;;;;;;;;;;2.40;92.90;;;;;;5083450;28;19983;-70
2022/02/25 07:29:40;;;;;;;;;;;2.40;92.80;;;;;;5083479;28;19915;-70
2022/02/25 07:32:06;;;;;;;;;;;2.40;92.80;;;;;;5082963;28;19912;-70
2022/02/25 07:34:32;;;;;;;;;;;2.40;92.90;;;;;;5081784;28;19908;-69
2022/02/25 07:36:57;;;;;;;;;;;2.50;92.70;;;;;;5082079;28;20088;-70
2022/02/25 07:39:23;;;;;;;;;;;2.50;92.70;;;;;;5082076;28;19915;-70
2022/02/25 07:41:49;;;;;;;;;;;2.60;92.70;;;;;;5082806;28;20142;-70
2022/02/25 07:44:15;;;;;;;;;;;2.60;92.70;;;;;;5083058;28;19908;-70
2022/02/25 07:46:40;;;;;;;;;;;2.70;92.60;;;;;;5078500;28;19920;-70
2022/02/25 07:49:06;;;;;;;;;;;2.80;92.40;;;;;;5079765;28;19939;-70
2022/02/25 07:51:32;;;;;;;;;;;2.80;92.20;;;;;;5081256;28;19953;-70
2022/02/25 07:54:01;;;;;;;;;;;2.80;92.20;;;;;;5081928;28;20199;-70
2022/02/25 07:56:27;;;;;;;;;;;2.80;92.10;;;;;;5083044;28;19912;-69
2022/02/25 07:58:52;;;;;;;;;;;2.80;92.30;;;;;;5082712;28;19930;-70
2022/02/25 08:01:19;;;;;;;;;;;2.90;91.80;;;;;;5082362;28;19908;-69
2022/02/25 08:03:44;;;;;;;;;;;2.90;91.90;;;;;;5073048;28;20219;-70
2022/02/25 08:06:11;;;;;;;;;;;3.00;91.70;;;;;;5061567;28;19921;-69
2022/02/25 08:08:37;;;;;;;;;;;3.10;91.60;;;;;;5063424;28;20230;-70
2022/02/25 08:11:04;;;;;;;;;;;3.10;91.70;;;;;;5082514;28;19909;-70
2022/02/25 08:13:30;;;;;;;;;;;3.10;91.20;;;;;;5081672;28;19909;-70
2022/02/25 08:15:56;;;;;;;;;;;3.20;91.30;;;;;;5084726;28;19909;-70
2022/02/25 08:18:21;;;;;;;;;;;3.20;91.00;;;;;;5085612;28;20115;-72
2022/02/25 08:20:47;;;;;;;;;;;3.30;90.80;;;;;;5085386;28;19980;-70
2022/02/25 08:23:13;;;;;;;;;;;3.30;90.50;;;;;;5086855;28;19931;-70
2022/02/25 08:25:38;;;;;;;;;;;3.40;90.50;;;;;;5086776;28;19941;-70
2022/02/25 08:28:06;;;;;;;;;;;3.40;90.50;;;;;;5086785;28;19916;-70
2022/02/25 08:30:32;;;;;;;;;;;3.50;90.10;;;;;;5085420;28;19908;-70
2022/02/25 08:33:00;;;;;;;;;;;3.50;89.70;;;;;;5086432;28;19970;-70
2022/02/25 08:35:26;;;;;;;;;;;3.50;89.80;;;;;;5068897;28;19909;-70
2022/02/25 08:37:52;;;;;;;;;;;3.50;89.10;;;;;;5065470;28;19909;-70
2022/02/25 08:40:18;;;;;;;;;;;3.70;89.60;;;;;;5065298;28;19909;-70
2022/02/25 08:42:43;;;;;;;;;;;3.70;89.60;;;;;;5066062;28;19981;-70
2022/02/25 08:45:10;;;;;;;;;;;3.70;88.90;;;;;;5066272;28;19935;-69
2022/02/25 08:47:36;;;;;;;;;;;3.80;87.50;;;;;;5065244;28;19909;-70
2022/02/25 08:50:02;;;;;;;;;;;3.80;86.90;;;;;;5064871;28;19909;-70
2022/02/25 08:52:28;;;;;;;;;;;3.80;86.60;;;;;;5064772;28;19915;-70
2022/02/25 08:54:53;;;;;;;;;;;3.90;85.10;;;;;;5066418;28;19934;-69
2022/02/25 08:57:19;;;;;;;;;;;3.90;84.40;;;;;;5064879;28;19913;-70
2022/02/25 08:59:45;;;;;;;;;;;4.00;84.20;;;;;;5066118;28;19908;-62
2022/02/25 09:02:11;;;;;;;;;;;4.00;86.40;;;;;;5065665;28;19909;-62
2022/02/25 09:04:37;;;;;;;;;;;4.20;85.80;;;;;;5064999;28;20122;-62
2022/02/25 09:07:03;;;;;;;;;;;4.30;80.70;;;;;;5066129;28;19920;-62
2022/02/25 09:09:28;;;;;;;;;;;4.40;80.90;;;;;;5064845;28;19916;-62
2022/02/25 09:11:54;;;;;;;;;;;4.40;76.50;;;;;;5065538;28;19909;-62
2022/02/25 09:14:20;;;;;;;;;;;4.40;76.80;;;;;;5065784;28;19955;-61
2022/02/25 09:16:46;;;;;;;;;;;4.50;77.50;;;;;;5065818;28;19908;-62
2022/02/25 09:19:12;;;;;;;;;;;4.70;77.70;;;;;;5065390;28;19909;-62
2022/02/25 09:21:38;;;;;;;;;;;4.90;76.40;;;;;;5065370;28;19995;-70
2022/02/25 09:24:04;;;;;;;;;;;5.00;76.40;;;;;;5064999;28;19913;-70
2022/02/25 09:26:29;;;;;;;;;;;5.10;75.80;;;;;;5066031;28;19913;-70
2022/02/25 09:28:56;;;;;;;;;;;5.00;75.80;;;;;;5066123;28;20199;-70
2022/02/25 09:31:22;;;;;;;;;;;5.00;77.70;;;;;;5065838;28;19916;-70
2022/02/25 09:33:48;;;;;;;;;;;5.10;77.80;;;;;;5065830;28;20166;-70
2022/02/25 09:36:13;;;;;;;;;;;5.10;77.10;;;;;;5066223;28;19913;-71
2022/02/25 09:38:40;;;;;;;;;;;5.10;75.90;;;;;;5064887;28;19938;-70
2022/02/25 09:41:06;;;;;;;;;;;5.20;76.10;;;;;;5065448;28;19974;-70
2022/02/25 09:43:32;;;;;;;;;;;5.30;77.50;;;;;;5064717;28;19932;-71
2022/02/25 09:46:00;;;;;;;;;;;5.30;77.90;;;;;;5064497;28;19913;-70
2022/02/25 09:48:26;;;;;;;;;;;5.50;77.60;;;;;;5064273;28;20199;-70
2022/02/25 09:50:52;;;;;;;;;;;5.50;77.10;;;;;;5068542;28;19916;-69
2022/02/25 09:53:19;;;;;;;;;;;5.60;77.80;;;;;;5083729;28;20203;-72
2022/02/25 09:55:45;;;;;;;;;;;5.70;76.00;;;;;;5084719;28;19954;-70
2022/02/25 09:58:10;;;;;;;;;;;5.80;75.20;;;;;;5083826;28;19909;-70
2022/02/25 10:00:37;;;;;;;;;;;5.70;74.50;;;;;;5084157;28;19915;-70
2022/02/25 10:03:05;;;;;;;;;;;5.80;74.60;;;;;;5083657;28;20115;-70
2022/02/25 10:05:34;;;;;;;;;;;5.80;73.60;;;;;;5066727;28;19913;-70
2022/02/25 10:08:26;;;;;;;;;;;5.70;68.60;;;;;;5063791;28;19909;-70
2022/02/25 10:10:53;;;;;;;;;;;5.50;71.40;;;;;;5063586;28;20211;-71
2022/02/25 10:13:21;;;;;;;;;;;5.40;73.90;;;;;;5064531;28;20223;-71
2022/02/25 10:15:48;;;;;;;;;;;5.30;73.50;;;;;;5063722;28;19916;-71
2022/02/25 10:18:22;;;;;;;;;;;5.50;73.60;;;;;;5063765;28;19909;-71
2022/02/25 10:20:48;;;;;;;;;;;5.60;70.10;;;;;;5064799;28;19916;-70
2022/02/25 10:23:21;;;;;;;;;;;5.60;70.10;;;;;;5063364;28;19909;-70
2022/02/25 10:25:46;;;;;;;;;;;5.50;70.60;;;;;;5047011;28;19913;-71
2022/02/25 10:28:12;;;;;;;;;;;5.50;69.00;;;;;;5064299;28;19908;-70
2022/02/25 10:30:39;;;;;;;;;;;5.30;70.00;;;;;;5064107;28;20115;-71
2022/02/25 10:33:04;;;;;;;;;;;5.40;71.10;;;;;;5063082;28;19986;-70
2022/02/25 10:35:38;;;;;;;;;;;5.50;71.10;;;;;;5064151;28;19912;-70
2022/02/25 10:38:20;;;;;;;;;;;5.80;70.00;;;;;;5046212;28;19947;-71
2022/02/25 10:40:50;;;;;;;;;;;6.10;70.40;;;;;;5064156;28;20203;-71
2022/02/25 10:43:16;;;;;;;;;;;6.20;65.10;;;;;;5109995;22;19920;-67
2022/02/25 10:45:43;;;;;;;;;;;5.90;64.00;;;;;;5115997;28;19983;-68
2022/02/25 10:48:12;;;;;;;;;;;5.90;64.30;;;;;;5124687;28;19912;-68
2022/02/25 10:50:49;;;;;;;;;;;5.90;66.20;;;;;;5124124;28;20164;-67
2022/02/25 10:53:25;;;;;;;;;;;5.80;64.30;;;;;;5124457;28;19907;-68
2022/02/25 10:55:51;;;;;;;;;;;5.90;65.80;;;;;;5124610;28;19960;-68
2022/02/25 10:58:17;;;;;;;;;;;6.10;67.50;;;;;;5123131;28;19908;-68
2022/02/25 11:00:43;;;;;;;;;;;6.70;66.70;;;;;;5124263;28;19914;-68
2022/02/25 11:03:13;;;;;;;;;;;7.30;65.80;;;;;;5124584;28;19912;-68
2022/02/25 11:05:42;;;;;;;;;;;7.70;63.60;;;;;;5090151;28;20155;-68
2022/02/25 11:08:08;;;;;;;;;;;8.10;61.00;;;;;;5124122;28;19908;-67
2022/02/25 11:10:34;;;;;;;;;;;8.50;60.10;;;;;;5124061;28;19947;-67
2022/02/25 11:13:01;;;;;;;;;;;8.80;56.70;;;;;;5119677;28;19908;-67
2022/02/25 11:15:28;;;;;;;;;;;9.20;55.60;;;;;;5102785;28;19974;-67
2022/02/25 11:17:54;;;;;;;;;;;9.60;53.10;;;;;;5103972;28;19908;-67
2022/02/25 11:20:31;;;;;;;;;;;9.50;52.20;;;;;;5103646;28;19988;-67
2022/02/25 11:22:59;;;;;;;;;;;9.80;51.70;;;;;;5102343;28;19957;-67
2022/02/25 11:25:25;;;;;;;;;;;9.10;50.60;;;;;;5103641;28;19926;-67
2022/02/25 11:27:51;;;;;;;;;;;8.50;51.20;;;;;;5103421;28;19908;-67
2022/02/25 11:30:40;;;;;;;;;;;7.70;52.00;;;;;;5103529;28;19908;-67
2022/02/25 11:33:16;;;;;;;;;;;7.30;53.40;;;;;;5102203;28;19915;-67
2022/02/25 11:35:53;;;;;;;;;;;6.80;54.70;;;;;;5103537;28;19908;-67
2022/02/25 11:38:42;;;;;;;;;;;6.70;56.00;;;;;;5103451;28;19915;-67
2022/02/25 11:41:14;;;;;;;;;;;7.60;55.00;;;;;;5102267;28;19909;-67
2022/02/25 11:43:51;;;;;;;;;;;9.30;49.50;;;;;;5102727;28;19912;-67
2022/02/25 11:46:23;;;;;;;;;;;9.00;48.20;;;;;;5103398;28;20039;-67
2022/02/25 11:48:51;;;;;;;;;;;9.10;48.40;;;;;;5101763;28;20085;-67
2022/02/25 11:51:49;;;;;;;;;;;9.10;48.70;;;;;;5102088;28;20149;-67
2022/02/25 11:54:17;;;;;;;;;;;8.60;50.00;;;;;;5068772;28;19915;-67
2022/02/25 11:56:43;;;;;;;;;;;8.20;51.00;;;;;;5102936;28;19908;-67
2022/02/25 11:59:09;;;;;;;;;;;8.60;51.70;;;;;;5102689;28;19915;-67
2022/02/25 12:02:16;;;;;;;;;;;8.60;50.80;;;;;;5102707;28;19908;-67
2022/02/25 12:04:45;;;;;;;;;;;9.60;48.80;;;;;;5039390;28;20129;-67
2022/02/25 12:07:30;;;;;;;;;;;10.80;45.30;;;;;;5077066;28;19916;-68
2022/02/25 12:09:56;;;;;;;;;;;12.80;41.30;;;;;;5082646;28;20120;-68
2022/02/25 12:12:24;;;;;;;;;;;15.00;37.10;;;;;;5082556;28;19908;-68
2022/02/25 12:15:08;;;;;;;;;;;14.50;36.60;;;;;;5101361;28;19915;-68
2022/02/25 12:17:37;;;;;;;;;;;14.90;36.00;;;;;;5102947;28;20195;-68
2022/02/25 12:20:17;;;;;;;;;;;15.00;34.90;;;;;;5102689;28;20022;-67
2022/02/25 12:22:55;;;;;;;;;;;13.90;36.90;;;;;;5102824;28;19912;-67
2022/02/25 12:25:36;;;;;;;;;;;12.70;38.70;;;;;;5103016;28;19912;-69
2022/02/25 12:28:14;;;;;;;;;;;11.60;40.30;;;;;;5101745;28;19918;-68
2022/02/25 12:30:47;;;;;;;;;;;10.40;43.50;;;;;;5102482;28;19908;-68
2022/02/25 12:33:44;;;;;;;;;;;9.70;45.30;;;;;;5101774;28;19982;-68
2022/02/25 12:36:17;;;;;;;;;;;9.10;47.30;;;;;;5086547;28;19909;-68
2022/02/25 12:38:49;;;;;;;;;;;8.50;49.80;;;;;;5082128;28;19908;-68
2022/02/25 12:41:19;;;;;;;;;;;8.30;50.70;;;;;;5082039;28;19908;-68
2022/02/25 12:43:52;;;;;;;;;;;8.20;52.10;;;;;;5081875;28;20051;-68
2022/02/25 12:46:18;;;;;;;;;;;8.70;52.00;;;;;;5082202;28;19913;-68
2022/02/25 12:48:44;;;;;;;;;;;9.40;49.20;;;;;;5082471;28;19916;-69
2022/02/25 12:51:09;;;;;;;;;;;10.20;46.60;;;;;;5081893;28;20092;-69
2022/02/25 12:53:52;;;;;;;;;;;10.10;46.60;;;;;;5082115;28;19930;-68
2022/02/25 12:56:22;;;;;;;;;;;9.70;47.60;;;;;;5082280;28;19938;-69
2022/02/25 12:58:49;;;;;;;;;;;9.70;48.10;;;;;;5082304;28;19917;-69
2022/02/25 13:01:22;;;;;;;;;;;9.80;49.10;;;;;;5083402;28;19936;-68
2022/02/25 13:04:06;;;;;;;;;;;10.50;46.80;;;;;;5085921;28;19909;-69
2022/02/25 13:06:38;;;;;;;;;;;10.40;45.50;;;;;;5085094;28;19916;-69
2022/02/25 13:09:06;;;;;;;;;;;10.10;47.00;;;;;;5085860;28;20065;-69
2022/02/25 13:11:32;;;;;;;;;;;9.70;46.90;;;;;;5085694;28;19916;-68
2022/02/25 13:14:15;;;;;;;;;;;9.10;48.00;;;;;;5085543;28;19908;-68
2022/02/25 13:16:54;;;;;;;;;;;8.90;49.50;;;;;;5085576;28;19912;-68
2022/02/25 13:19:23;;;;;;;;;;;8.70;50.60;;;;;;5085820;28;20115;-68
2022/02/25 13:22:04;;;;;;;;;;;8.60;51.40;;;;;;5084700;28;20227;-69
2022/02/25 13:24:30;;;;;;;;;;;8.40;51.20;;;;;;5085298;28;19927;-68
2022/02/25 13:27:00;;;;;;;;;;;8.50;51.80;;;;;;5091272;28;19943;-68
2022/02/25 13:29:27;;;;;;;;;;;8.40;52.50;;;;;;5104719;28;19916;-68
2022/02/25 13:31:57;;;;;;;;;;;8.50;52.60;;;;;;5105565;28;20011;-68
2022/02/25 13:34:24;;;;;;;;;;;8.60;51.70;;;;;;5105571;28;19936;-68
2022/02/25 13:36:50;;;;;;;;;;;8.80;50.20;;;;;;5083822;28;20182;-68
2022/02/25 13:39:42;;;;;;;;;;;8.70;49.90;;;;;;5084070;28;20203;-68
2022/02/25 13:42:07;;;;;;;;;;;8.50;49.80;;;;;;5082787;28;20216;-68
2022/02/25 13:44:34;;;;;;;;;;;8.20;50.00;;;;;;5084984;28;19920;-69
2022/02/25 13:52:19;;;;;;;;;;;8.00;49.40;;;;;;5085378;28;19916;-68
2022/02/25 13:52:31;;;;;;;;;;;7.50;52.00;;;;;;5084673;28;20261;-68
2022/02/25 13:55:11;;;;;;;;;;;7.20;53.50;;;;;;5084678;28;19916;-68
2022/02/25 13:57:39;;;;;;;;;;;6.80;58.20;;;;;;5083925;28;19947;-68
2022/02/25 14:00:08;;;;;;;;;;;6.50;67.80;;;;;;5084619;28;20167;-68
2022/02/25 14:02:36;;;;;;;;;;;6.30;72.40;;;;;;5095620;28;20088;-67
2022/02/25 14:05:09;;;;;;;;;;;6.00;81.10;;;;;;5099017;28;19913;-67
2022/02/25 14:07:39;;;;;;;;;;;5.40;88.00;;;;;;5084869;28;19909;-67
2022/02/25 14:10:08;;;;;;;;;;;5.00;90.40;;;;;;5084828;28;19912;-67
2022/02/25 14:12:42;;;;;;;;;;;4.60;91.40;;;;;;5082101;28;20204;-66
2022/02/25 14:15:11;;;;;;;;;;;4.40;92.10;;;;;;5084474;28;19953;-67
2022/02/25 14:17:37;;;;;;;;;;;4.30;92.60;;;;;;5084444;28;19936;-66
2022/02/25 14:20:17;;;;;;;;;;;4.30;92.80;;;;;;5084296;28;19946;-66
2022/02/25 14:23:12;;;;;;;;;;;4.40;92.80;;;;;;5084249;28;19930;-66
2022/02/25 14:25:39;;;;;;;;;;;4.50;93.20;;;;;;5071317;28;19921;-66
2022/02/25 14:28:08;;;;;;;;;;;4.50;93.30;;;;;;5084338;28;20219;-66
2022/02/25 14:30:51;;;;;;;;;;;4.60;93.20;;;;;;5084288;28;19954;-66
2022/02/25 14:33:19;;;;;;;;;;;4.70;93.10;;;;;;5084284;28;19908;-66
2022/02/25 14:35:48;;;;;;;;;;;4.90;93.20;;;;;;5083675;28;19930;-66
2022/02/25 14:38:16;;;;;;;;;;;5.00;93.00;;;;;;5093751;28;19908;-66
2022/02/25 14:40:42;;;;;;;;;;;5.10;92.50;;;;;;5103489;28;19912;-66